Portada
METAR-TAF:

METAR-TAF

Aeroports :

Santiago de Cuba, Cuba

latitud: 19-58N, longitud: 075-51W, altitud: 69 m

Observació

L'informe es va fer fa 1 hora i 3 minuts, a les 18:50 UTC
Vent 7 kt del Sud
Temperatura 29°C
Humitat 66%
Pressió 1016 hPa
Visibilitat: 9000 m
Escasses núvols a una alçada de 2000 ft

METAR: MUCU 071850Z 19007KT 9000 FEW020 29/22 Q1016

Hora: 15:53 (19:53 UTC)

Pronòstic

L'informe es va fer fa 2 hores i 53 minuts, a les 17:00 UTC
Pronòstic vàlid del 07 a les 18 UTC al 08 a les 18 UTC
Vent 8 kt del Sud
Visibilitat: 9000 m
Escasses núvols a una alçada de 2000 ft
Evolucionant progressivament
l' 08 a les 01 UTC al 08 a les 03 UTC
Vent 3 kt amb direcció variable
Evolucionant progressivament
l' 08 a les 15 UTC al 08 a les 17 UTC
Vent 7 kt del Sud

TAF: MUCU 071700Z 0718/0818 18008KT 9000 FEW020 BECMG 0801/0803 VRB03KT BECMG 0815/0817 18007KT

Observacions i pronòstics meteorològics de més de 4000 aeroports (METAR i TAF).

Les estacions disponibles són els punts grocs i vermells al mapa.

Posi el ratolí al punt desitjat per veure el nom de l'estació.

Feu clic per veure les observacions i els pronòstics meteorològics.

Per canviar el mapa: feu clic els botons verds amb una creu de color negre per apropar; al botó verd amb un guió per allunyar la imatge; o en les fletxes verdes per a mapes adjacents.


METAR-TAF: